Terminal Aerodrome Forecast
Issued by NWS

Home | Current Version | Previous Version | Text Only | Print | Product List | Glossary On
Versions: 1 2 3 4 5 6 7 8 9 10 11 12 13 14 15 16 17 18 19 20 21 22 23 24 25 26 27 28 29 30 31 32
000
FTPQ31 PGUM 021739
TAFGUM
TAF

TAF
PTRO 021739Z 0218/0318 05012KT P6SM -RA VCTS SCT014CB BKN040 OVC100
      TEMPO 0218/0222 4SM SHRA BKN014 OVC030
     FM022200 05010KT P6SM VCSH SCT016 SCT040 BKN100
     FM030200 08014KT P6SM VCSH FEW016 SCT040 BKN120=

USA.gov is the U.S. government's official web portal to all federal, state and local government web resources and services.